Time;durP1;ratioP1;P1;durP2;ratioP2;P2;SDS_P1;SDS_P2;PMS_P1;PMS_P2;Temp;Humidity;BMP_temperature;BMP_pressure;BME280_temperature;BME280_humidity;BME280_pressure;Samples;Min_cycle;Max_cycle;Signal;HPM_P1;HPM_P2
2022/08/22 00:02:12;;;;;;;0.20;0.20;;;10.70;99.90;;;;;;4994651;28;20220;-75
2022/08/22 00:04:55;;;;;;;0.20;0.20;;;10.60;99.90;;;;;;4995559;28;20200;-72
2022/08/22 00:07:41;;;;;;;0.90;0.43;;;10.60;99.90;;;;;;4993873;28;20195;-74
2022/08/22 00:10:23;;;;;;;0.20;0.20;;;10.50;99.90;;;;;;4995236;28;20215;-73
2022/08/22 00:13:05;;;;;;;0.20;0.20;;;10.40;99.90;;;;;;5041839;28;20199;-73
2022/08/22 00:15:46;;;;;;;0.45;0.45;;;10.40;99.90;;;;;;5014503;28;20606;-73
2022/08/22 00:18:31;;;;;;;0.20;0.20;;;10.30;99.90;;;;;;5013274;28;20266;-73
2022/08/22 00:21:02;;;;;;;0.20;0.20;;;10.30;99.90;;;;;;5013318;28;20690;-73
2022/08/22 00:23:52;;;;;;;0.75;0.55;;;10.20;99.90;;;;;;5014489;28;20622;-73
2022/08/22 00:26:39;;;;;;;0.20;0.20;;;10.20;99.90;;;;;;5014456;28;20210;-73
2022/08/22 00:29:18;;;;;;;0.20;0.20;;;10.20;99.90;;;;;;5013217;28;20209;-73
2022/08/22 00:32:07;;;;;;;0.82;0.40;;;10.20;99.90;;;;;;5013038;28;20608;-73
2022/08/22 00:34:36;;;;;;;0.90;0.45;;;10.10;99.90;;;;;;5013189;28;20194;-73
2022/08/22 00:37:08;;;;;;;4.28;0.98;;;10.10;99.90;;;;;;5014059;28;20241;-73
2022/08/22 00:39:51;;;;;;;0.20;0.20;;;10.00;99.90;;;;;;5013287;28;20221;-72
2022/08/22 00:42:20;;;;;;;0.20;0.20;;;10.00;99.90;;;;;;5012904;28;20745;-72
2022/08/22 00:45:12;;;;;;;0.30;0.30;;;10.00;99.90;;;;;;5014381;28;20199;-72
2022/08/22 00:47:47;;;;;;;0.30;0.30;;;10.00;99.90;;;;;;5014076;28;20286;-72
2022/08/22 00:50:37;;;;;;;0.20;0.20;;;9.90;99.90;;;;;;5012842;28;20220;-72
2022/08/22 00:53:33;;;;;;;0.40;0.40;;;9.90;99.90;;;;;;5013952;28;20211;-72
2022/08/22 00:56:11;;;;;;;0.20;0.20;;;9.80;99.90;;;;;;5012648;28;20198;-73
2022/08/22 00:58:43;;;;;;;0.80;0.80;;;9.80;99.90;;;;;;5025979;28;20202;-73
2022/08/22 01:01:12;;;;;;;0.90;0.52;;;9.70;99.90;;;;;;5025851;28;20200;-73
2022/08/22 01:04:12;;;;;;;0.20;0.20;;;9.70;99.90;;;;;;5025669;28;20690;-73
2022/08/22 01:07:04;;;;;;;1.20;0.93;;;9.60;99.90;;;;;;5024875;28;20214;-73
2022/08/22 01:10:01;;;;;;;0.20;0.20;;;9.60;99.90;;;;;;5009509;28;20269;-72
2022/08/22 01:12:26;;;;;;;0.20;0.20;;;9.50;99.90;;;;;;5011715;28;20680;-73
2022/08/22 01:15:04;;;;;;;0.20;0.20;;;9.50;99.90;;;;;;5013420;28;20198;-72
2022/08/22 01:18:16;;;;;;;0.25;0.25;;;9.50;99.90;;;;;;5012218;28;20567;-72
2022/08/22 01:21:12;;;;;;;0.40;0.40;;;9.50;99.90;;;;;;5012302;28;20203;-73
2022/08/22 01:23:55;;;;;;;0.20;0.20;;;9.30;99.90;;;;;;5013466;28;20345;-73
2022/08/22 01:26:42;;;;;;;0.63;0.63;;;9.30;99.90;;;;;;5013251;28;20245;-73
2022/08/22 01:29:40;;;;;;;0.20;0.20;;;9.30;99.90;;;;;;5012021;28;20198;-72
2022/08/22 01:32:23;;;;;;;0.30;0.30;;;9.30;99.90;;;;;;5012290;28;20248;-73
2022/08/22 01:34:57;;;;;;;0.20;0.20;;;9.30;99.90;;;;;;5012781;28;20194;-73
2022/08/22 01:37:26;;;;;;;0.30;0.30;;;9.20;99.90;;;;;;5012078;28;20688;-74
2022/08/22 01:40:40;;;;;;;0.20;0.20;;;9.20;99.90;;;;;;5013715;28;20195;-72
2022/08/22 01:43:24;;;;;;;0.20;0.20;;;9.20;99.90;;;;;;5013562;28;20245;-73
2022/08/22 01:46:17;;;;;;;0.73;0.73;;;9.10;99.90;;;;;;5003930;28;20204;-72
2022/08/22 01:48:50;;;;;;;0.20;0.20;;;9.10;99.90;;;;;;4993739;28;20196;-72
2022/08/22 01:51:25;;;;;;;0.20;0.20;;;9.10;99.90;;;;;;4993800;28;20701;-73
2022/08/22 01:54:04;;;;;;;0.30;0.30;;;9.10;99.90;;;;;;4993699;28;20191;-72
2022/08/22 01:56:40;;;;;;;0.70;0.55;;;9.00;99.90;;;;;;5025312;28;20267;-73
2022/08/22 01:59:10;;;;;;;0.20;0.20;;;9.00;99.90;;;;;;4993849;28;20195;-73
2022/08/22 02:02:00;;;;;;;0.20;0.20;;;8.90;99.90;;;;;;4992760;28;20726;-72
2022/08/22 02:04:38;;;;;;;0.20;0.20;;;8.90;99.90;;;;;;4993550;28;20199;-72
2022/08/22 02:07:22;;;;;;;0.20;0.20;;;8.90;99.90;;;;;;4993531;28;20670;-72
2022/08/22 02:10:00;;;;;;;0.20;0.20;;;8.90;99.90;;;;;;4992357;28;20644;-73
2022/08/22 02:12:43;;;;;;;0.35;0.35;;;8.90;99.90;;;;;;4992118;28;20192;-75
2022/08/22 02:15:37;;;;;;;0.20;0.20;;;8.90;99.90;;;;;;4992661;28;20203;-72
2022/08/22 02:18:05;;;;;;;0.20;0.20;;;8.80;99.90;;;;;;4993585;28;20277;-73
2022/08/22 02:20:46;;;;;;;0.30;0.30;;;8.80;99.90;;;;;;4993170;28;20207;-72
2022/08/22 02:23:48;;;;;;;0.22;0.22;;;8.80;99.90;;;;;;4993368;28;20609;-72
2022/08/22 02:26:36;;;;;;;0.22;0.22;;;8.70;99.90;;;;;;4996622;28;20199;-73
2022/08/22 02:29:19;;;;;;;0.20;0.20;;;8.70;99.90;;;;;;4997437;28;20199;-73
2022/08/22 02:32:07;;;;;;;0.20;0.20;;;8.70;99.90;;;;;;5013504;28;20199;-72
2022/08/22 02:34:48;;;;;;;0.20;0.20;;;8.70;99.90;;;;;;5015962;28;20199;-72
2022/08/22 02:37:20;;;;;;;0.40;0.40;;;8.60;99.90;;;;;;5015757;28;20677;-72
2022/08/22 02:40:06;;;;;;;0.30;0.30;;;8.60;99.90;;;;;;5015655;28;20195;-72
2022/08/22 02:42:56;;;;;;;0.20;0.20;;;8.50;99.90;;;;;;5015653;28;20234;-73
2022/08/22 02:45:57;;;;;;;0.20;0.20;;;8.50;99.90;;;;;;5010756;28;20290;-72
2022/08/22 02:49:11;;;;;;;0.57;0.57;;;8.50;99.90;;;;;;4997178;28;20203;-72
2022/08/22 02:52:04;;;;;;;0.35;0.35;;;8.50;99.90;;;;;;4992469;28;20587;-72
2022/08/22 02:55:07;;;;;;;0.30;0.30;;;8.50;99.90;;;;;;4996987;28;20196;-73
2022/08/22 02:57:55;;;;;;;0.75;0.65;;;8.50;99.90;;;;;;4996606;28;20191;-72
2022/08/22 03:00:47;;;;;;;0.20;0.20;;;8.40;99.90;;;;;;4999308;28;20612;-72
2022/08/22 03:03:27;;;;;;;0.20;0.20;;;8.40;99.90;;;;;;5012147;28;20735;-72
2022/08/22 03:06:04;;;;;;;0.30;0.30;;;8.40;99.90;;;;;;4996650;28;20330;-72
2022/08/22 03:08:30;;;;;;;0.30;0.30;;;8.40;99.90;;;;;;5011552;28;20224;-73
2022/08/22 03:11:18;;;;;;;0.20;0.20;;;8.40;99.90;;;;;;4995295;28;20220;-71
2022/08/22 03:14:08;;;;;;;0.20;0.20;;;8.40;99.90;;;;;;4995179;28;20191;-71
2022/08/22 03:17:09;;;;;;;0.20;0.20;;;8.40;99.90;;;;;;5011398;28;20203;-71
2022/08/22 03:19:59;;;;;;;6.22;1.42;;;8.30;99.90;;;;;;4995999;28;20284;-72
2022/08/22 03:22:42;;;;;;;0.30;0.30;;;8.40;99.90;;;;;;4994850;28;20235;-71
2022/08/22 03:25:22;;;;;;;0.22;0.22;;;8.40;99.90;;;;;;5011193;28;20207;-74
2022/08/22 03:28:07;;;;;;;2.08;1.35;;;8.30;99.90;;;;;;5010922;28;20202;-72
2022/08/22 03:30:36;;;;;;;0.52;0.35;;;8.30;99.90;;;;;;5015529;28;20621;-71
2022/08/22 03:33:21;;;;;;;0.20;0.20;;;8.30;99.90;;;;;;5015520;28;20646;-72
2022/08/22 03:35:46;;;;;;;2.33;0.85;;;8.30;99.90;;;;;;5013661;28;20218;-72
2022/08/22 03:38:30;;;;;;;0.22;0.22;;;8.20;99.90;;;;;;5014035;28;20284;-72
2022/08/22 03:41:14;;;;;;;0.30;0.30;;;8.20;99.90;;;;;;5015377;28;20213;-72
2022/08/22 03:44:00;;;;;;;0.30;0.30;;;8.20;99.90;;;;;;5015410;28;20219;-72
2022/08/22 03:47:13;;;;;;;0.20;0.20;;;8.20;99.90;;;;;;5010485;28;20638;-72
2022/08/22 03:49:53;;;;;;;0.30;0.30;;;8.20;99.90;;;;;;4995722;28;20215;-72
2022/08/22 03:53:05;;;;;;;0.25;0.25;;;8.20;99.90;;;;;;4995491;28;20241;-72
2022/08/22 03:56:00;;;;;;;0.20;0.20;;;8.20;99.90;;;;;;4995179;28;20543;-73
2022/08/22 03:58:54;;;;;;;0.30;0.30;;;8.20;99.90;;;;;;4995340;28;20194;-72
2022/08/22 04:01:38;;;;;;;0.30;0.30;;;8.20;99.90;;;;;;5008272;28;20214;-72
2022/08/22 04:04:10;;;;;;;0.57;0.50;;;8.20;99.90;;;;;;5014925;28;20203;-72
2022/08/22 04:07:02;;;;;;;0.30;0.30;;;8.20;99.90;;;;;;5013684;28;20206;-72
2022/08/22 04:09:43;;;;;;;0.20;0.20;;;8.30;99.90;;;;;;5014815;28;20220;-72
2022/08/22 04:12:46;;;;;;;0.20;0.20;;;8.40;99.90;;;;;;5014881;28;20623;-72
2022/08/22 04:15:41;;;;;;;0.20;0.20;;;8.40;99.90;;;;;;5014878;28;20198;-71
2022/08/22 04:18:28;;;;;;;0.20;0.20;;;8.50;99.90;;;;;;5014858;28;20226;-71
2022/08/22 04:21:14;;;;;;;0.20;0.20;;;8.50;99.90;;;;;;5013334;28;20202;-71
2022/08/22 04:23:45;;;;;;;0.20;0.20;;;8.50;99.90;;;;;;5013728;28;20214;-71
2022/08/22 04:26:17;;;;;;;0.20;0.20;;;8.60;99.90;;;;;;5013421;28;20252;-71
2022/08/22 04:28:51;;;;;;;0.20;0.20;;;8.70;99.90;;;;;;5014552;28;20541;-71
2022/08/22 04:31:22;;;;;;;0.20;0.20;;;8.70;99.90;;;;;;5014571;28;20206;-71
2022/08/22 04:34:01;;;;;;;0.20;0.20;;;8.80;99.90;;;;;;5014420;28;20191;-71
2022/08/22 04:36:38;;;;;;;0.20;0.20;;;8.90;99.90;;;;;;5014383;28;20183;-72
2022/08/22 04:39:26;;;;;;;0.20;0.20;;;8.90;99.90;;;;;;5014326;28;20190;-72
2022/08/22 04:42:04;;;;;;;0.20;0.20;;;9.00;99.90;;;;;;5014252;28;20198;-72
2022/08/22 04:44:38;;;;;;;0.20;0.20;;;9.10;99.90;;;;;;5014116;28;20743;-72
2022/08/22 04:47:22;;;;;;;0.20;0.20;;;9.20;99.90;;;;;;4994150;28;20267;-72
2022/08/22 04:49:58;;;;;;;0.20;0.20;;;9.40;99.90;;;;;;5025948;28;20250;-72
2022/08/22 04:52:34;;;;;;;0.20;0.20;;;9.50;99.90;;;;;;5027349;28;20290;-72
2022/08/22 04:55:27;;;;;;;0.20;0.20;;;9.60;99.90;;;;;;5013947;28;20199;-72
2022/08/22 04:58:03;;;;;;;0.38;0.38;;;9.70;99.90;;;;;;5012481;28;20280;-72
2022/08/22 05:00:50;;;;;;;0.30;0.30;;;9.80;99.90;;;;;;5013668;28;20660;-73
2022/08/22 05:03:21;;;;;;;0.20;0.20;;;9.90;99.90;;;;;;5012699;28;20221;-72
2022/08/22 05:05:48;;;;;;;0.20;0.20;;;10.00;99.90;;;;;;5012701;28;20206;-72
2022/08/22 05:08:21;;;;;;;0.20;0.20;;;10.10;99.90;;;;;;5013953;28;20202;-73
2022/08/22 05:10:49;;;;;;;0.90;0.70;;;10.20;99.90;;;;;;5014091;28;20206;-72
2022/08/22 05:13:42;;;;;;;0.98;0.85;;;10.40;99.90;;;;;;5012454;28;20290;-73
2022/08/22 05:16:20;;;;;;;0.57;0.57;;;10.50;99.90;;;;;;5013588;28;20190;-72
2022/08/22 05:19:09;;;;;;;1.10;0.57;;;10.70;99.90;;;;;;5012777;28;20265;-72
2022/08/22 05:21:39;;;;;;;0.20;0.20;;;10.90;99.90;;;;;;5013535;28;20202;-72
2022/08/22 05:24:22;;;;;;;0.20;0.20;;;11.00;99.90;;;;;;5012195;28;20202;-72
2022/08/22 05:26:54;;;;;;;0.20;0.20;;;11.10;99.90;;;;;;5013579;28;20679;-72
2022/08/22 05:29:25;;;;;;;0.20;0.20;;;11.30;99.90;;;;;;5013205;28;20286;-73
2022/08/22 05:31:57;;;;;;;0.20;0.20;;;11.40;99.90;;;;;;5013633;28;20198;-72
2022/08/22 05:34:29;;;;;;;0.20;0.20;;;11.50;99.90;;;;;;5012162;28;20195;-72
2022/08/22 05:37:07;;;;;;;0.20;0.20;;;11.70;99.90;;;;;;5012067;28;20642;-73
2022/08/22 05:39:33;;;;;;;0.30;0.30;;;11.80;99.90;;;;;;4995289;28;20693;-73
2022/08/22 05:42:04;;;;;;;0.55;0.52;;;11.90;99.90;;;;;;5025208;28;20195;-73
2022/08/22 05:44:36;;;;;;;0.15;0.15;;;12.00;99.90;;;;;;4993665;28;20200;-73
2022/08/22 05:47:37;;;;;;;0.20;0.20;;;12.10;99.90;;;;;;5008567;28;20806;-72
2022/08/22 05:50:09;;;;;;;0.20;0.20;;;12.30;99.90;;;;;;5006658;28;20213;-73
2022/08/22 05:53:15;;;;;;;1.25;0.88;;;12.40;99.90;;;;;;5011827;28;20203;-73
2022/08/22 05:55:47;;;;;;;0.30;0.30;;;12.50;99.90;;;;;;5013537;28;20661;-73
2022/08/22 05:58:34;;;;;;;0.25;0.25;;;12.80;99.90;;;;;;5013469;28;20194;-73
2022/08/22 06:01:16;;;;;;;0.20;0.20;;;12.90;99.90;;;;;;5015659;28;20202;-73
2022/08/22 06:04:10;;;;;;;0.20;0.20;;;13.10;99.90;;;;;;5016175;28;20199;-73
2022/08/22 06:06:57;;;;;;;0.43;0.43;;;13.20;99.90;;;;;;5015821;28;20226;-73
2022/08/22 06:09:57;;;;;;;0.30;0.25;;;13.40;99.90;;;;;;5017469;28;20557;-73
2022/08/22 06:12:28;;;;;;;0.30;0.30;;;13.60;99.90;;;;;;5017021;28;20187;-72
2022/08/22 06:15:21;;;;;;;0.15;0.15;;;13.70;99.90;;;;;;5015204;28;20199;-74
2022/08/22 06:17:57;;;;;;;0.10;0.10;;;13.80;99.90;;;;;;5015162;28;20369;-72
2022/08/22 06:20:32;;;;;;;0.52;0.52;;;13.90;99.90;;;;;;5015444;28;20213;-74
2022/08/22 06:23:01;;;;;;;0.35;0.15;;;14.00;99.90;;;;;;5015798;28;20218;-71
2022/08/22 06:25:31;;;;;;;0.20;0.20;;;14.10;99.90;;;;;;5017040;28;20727;-72
2022/08/22 06:28:03;;;;;;;2.65;1.00;;;14.20;99.90;;;;;;5017062;28;20689;-73
2022/08/22 06:30:30;;;;;;;0.10;0.10;;;14.20;99.90;;;;;;5015444;28;20221;-74
2022/08/22 06:33:02;;;;;;;0.43;0.43;;;14.30;99.90;;;;;;5015867;28;20195;-73
2022/08/22 06:38:27;;;;;;;0.10;0.10;;;14.60;99.90;;;;;;5017083;28;20273;-72
2022/08/22 06:40:54;;;;;;;1.02;0.30;;;14.70;99.90;;;;;;5016756;28;20618;-73
2022/08/22 06:43:23;;;;;;;0.20;0.20;;;14.60;99.90;;;;;;5016882;28;20673;-73
2022/08/22 06:45:49;;;;;;;0.10;0.10;;;14.70;99.90;;;;;;5007717;28;20200;-73
2022/08/22 06:48:22;;;;;;;0.43;0.20;;;14.70;99.90;;;;;;4996013;28;20207;-73
2022/08/22 06:50:55;;;;;;;0.20;0.20;;;14.70;99.90;;;;;;5014860;28;20210;-73
2022/08/22 06:53:26;;;;;;;0.10;0.10;;;14.80;99.90;;;;;;5016329;28;20237;-73
2022/08/22 06:56:01;;;;;;;0.30;0.30;;;14.90;99.90;;;;;;5015163;28;20282;-73
2022/08/22 06:58:43;;;;;;;0.10;0.10;;;15.10;99.90;;;;;;5016124;28;20674;-73
2022/08/22 07:01:16;;;;;;;0.52;0.40;;;15.20;99.90;;;;;;5016083;28;20665;-73
2022/08/22 07:03:57;;;;;;;0.38;0.38;;;15.40;99.90;;;;;;5016066;28;20234;-72
2022/08/22 07:06:29;;;;;;;0.10;0.10;;;15.60;99.90;;;;;;5015929;28;20190;-73
2022/08/22 07:08:58;;;;;;;0.10;0.10;;;15.80;99.90;;;;;;5016065;28;20202;-74
2022/08/22 07:11:30;;;;;;;0.10;0.10;;;16.00;99.90;;;;;;5013535;28;20203;-73
2022/08/22 07:14:05;;;;;;;0.28;0.28;;;16.00;99.90;;;;;;5015076;28;20190;-73
2022/08/22 07:16:34;;;;;;;0.10;0.10;;;16.10;99.90;;;;;;5016050;28;20297;-73
2022/08/22 07:19:00;;;;;;;0.15;0.15;;;16.20;99.90;;;;;;5015881;28;20227;-73
2022/08/22 07:21:29;;;;;;;0.10;0.10;;;16.30;99.90;;;;;;5016032;28;20221;-73
2022/08/22 07:24:00;;;;;;;0.10;0.10;;;16.30;99.90;;;;;;5016382;28;20557;-74
2022/08/22 07:26:43;;;;;;;0.50;0.50;;;16.50;99.90;;;;;;5015871;28;20607;-73
2022/08/22 07:29:27;;;;;;;0.10;0.10;;;16.60;99.90;;;;;;5014733;28;20203;-73
2022/08/22 07:32:04;;;;;;;0.20;0.20;;;16.80;99.90;;;;;;5014601;28;20265;-73
2022/08/22 07:34:52;;;;;;;0.10;0.10;;;17.10;99.90;;;;;;5015991;28;20222;-73
2022/08/22 07:37:36;;;;;;;0.10;0.10;;;17.00;99.90;;;;;;5015976;28;20274;-74
2022/08/22 07:40:19;;;;;;;0.08;0.08;;;17.00;99.90;;;;;;5016035;28;20191;-73
2022/08/22 07:43:15;;;;;;;0.10;0.10;;;17.20;99.90;;;;;;5015532;28;20748;-72
2022/08/22 07:45:59;;;;;;;0.10;0.10;;;17.20;99.90;;;;;;5013478;28;20213;-73
2022/08/22 07:48:42;;;;;;;0.20;0.20;;;17.50;99.90;;;;;;5014105;28;20684;-73
2022/08/22 07:51:14;;;;;;;0.10;0.10;;;17.60;99.90;;;;;;5014186;28;20306;-73
2022/08/22 07:54:04;;;;;;;0.20;0.20;;;17.60;99.90;;;;;;5014320;28;20876;-73
2022/08/22 07:56:38;;;;;;;0.57;0.25;;;17.90;99.90;;;;;;5014459;28;20198;-73
2022/08/22 07:59:15;;;;;;;0.20;0.20;;;18.00;99.90;;;;;;5014259;28;20197;-73
2022/08/22 08:01:52;;;;;;;0.10;0.10;;;18.20;99.90;;;;;;5013957;28;20284;-73
2022/08/22 08:04:30;;;;;;;0.10;0.10;;;18.40;99.90;;;;;;5015327;28;20269;-74
2022/08/22 08:06:59;;;;;;;0.10;0.10;;;18.40;99.90;;;;;;5015317;28;20194;-73
2022/08/22 08:09:37;;;;;;;0.38;0.38;;;18.40;99.90;;;;;;5013969;28;20249;-73
2022/08/22 08:12:04;;;;;;;0.10;0.10;;;18.70;99.90;;;;;;5015308;28;20252;-74
2022/08/22 08:14:34;;;;;;;0.10;0.10;;;18.90;99.90;;;;;;5014937;28;20724;-73
2022/08/22 08:17:01;;;;;;;0.10;0.10;;;19.00;99.90;;;;;;5014734;28;20718;-74
2022/08/22 08:19:34;;;;;;;0.10;0.10;;;19.10;99.90;;;;;;5014580;28;20313;-73
2022/08/22 08:22:01;;;;;;;1.65;0.43;;;19.20;99.90;;;;;;5014489;28;20229;-74
2022/08/22 08:24:35;;;;;;;0.65;0.63;;;19.20;99.90;;;;;;5015367;28;20195;-73
2022/08/22 08:30:07;;;;;;;1.00;0.70;;;19.30;99.90;;;;;;5014959;28;20261;-74
2022/08/22 08:32:37;;;;;;;0.10;0.10;;;19.40;99.90;;;;;;5014508;28;20195;-74
2022/08/22 08:35:12;;;;;;;0.10;0.10;;;19.50;99.90;;;;;;5013389;28;20291;-73
2022/08/22 08:37:49;;;;;;;0.00;0.00;;;19.80;99.90;;;;;;5013550;28;20225;-74
2022/08/22 08:40:31;;;;;;;0.00;0.00;;;20.10;99.90;;;;;;5014672;28;20595;-74
2022/08/22 08:43:28;;;;;;;0.10;0.10;;;20.40;99.90;;;;;;5013538;28;20597;-73
2022/08/22 08:46:24;;;;;;;0.00;0.00;;;20.60;99.90;;;;;;5010189;28;20203;-73
2022/08/22 08:48:52;;;;;;;1.05;0.30;;;20.70;99.90;;;;;;5009724;28;20231;-74
2022/08/22 08:52:12;;;;;;;0.38;0.35;;;20.90;99.90;;;;;;4994694;28;20215;-74
2022/08/22 08:54:54;;;;;;;0.10;0.10;;;21.30;99.90;;;;;;4934424;29;20755;-74
2022/08/22 08:57:41;;;;;;;0.32;0.30;;;21.40;99.90;;;;;;4934607;29;20289;-73
2022/08/22 09:00:31;;;;;;;0.13;0.13;;;21.30;99.90;;;;;;4976748;28;20569;-73
2022/08/22 09:03:13;;;;;;;0.00;0.00;;;21.20;99.90;;;;;;5009976;28;20199;-73
2022/08/22 09:06:34;;;;;;;0.10;0.10;;;21.00;99.90;;;;;;5012018;28;20695;-73
2022/08/22 09:09:41;;;;;;;0.00;0.00;;;21.30;99.90;;;;;;5012745;28;20256;-73
2022/08/22 09:12:19;;;;;;;1.17;0.70;;;21.80;99.90;;;;;;4980749;28;20242;-74
2022/08/22 09:14:47;;;;;;;0.10;0.10;;;21.60;99.90;;;;;;5013980;28;20187;-74
2022/08/22 09:17:32;;;;;;;0.13;0.13;;;21.60;99.90;;;;;;5012590;28;20253;-72
2022/08/22 09:20:33;;;;;;;0.10;0.10;;;21.50;99.90;;;;;;5012759;28;20242;-74
2022/08/22 09:23:58;;;;;;;0.00;0.00;;;21.80;99.90;;;;;;5002172;28;20214;-74
2022/08/22 09:26:46;;;;;;;0.10;0.10;;;22.20;99.90;;;;;;4960451;28;20656;-74
2022/08/22 09:29:24;;;;;;;0.00;0.00;;;22.60;99.90;;;;;;5014000;28;20190;-74
2022/08/22 09:32:27;;;;;;;0.00;0.00;;;22.70;99.90;;;;;;5013569;28;20685;-74
2022/08/22 09:35:16;;;;;;;0.10;0.10;;;22.30;99.90;;;;;;5012552;28;20532;-74
2022/08/22 09:38:01;;;;;;;0.05;0.05;;;22.20;99.90;;;;;;5013196;28;20226;-75
2022/08/22 09:40:33;;;;;;;0.10;0.10;;;22.60;99.90;;;;;;5011969;28;20580;-74
2022/08/22 09:43:05;;;;;;;0.00;0.00;;;22.80;99.90;;;;;;5012008;28;20206;-74
2022/08/22 09:45:35;;;;;;;0.75;0.38;;;22.40;99.90;;;;;;5012999;28;20650;-74
2022/08/22 09:48:42;;;;;;;0.95;0.30;;;21.90;99.90;;;;;;5012099;28;20277;-73
2022/08/22 09:51:14;;;;;;;0.00;0.00;;;22.20;99.90;;;;;;4952641;28;20587;-73
2022/08/22 09:54:04;;;;;;;0.10;0.10;;;22.50;99.90;;;;;;4936590;29;20239;-73
2022/08/22 09:56:29;;;;;;;0.10;0.10;;;22.70;99.90;;;;;;4987571;28;20207;-72
2022/08/22 09:59:08;;;;;;;0.00;0.00;;;22.90;99.90;;;;;;5013340;28;20240;-73
2022/08/22 10:01:40;;;;;;;0.00;0.00;;;23.00;99.90;;;;;;5010707;28;20205;-73
2022/08/22 10:04:24;;;;;;;0.00;0.00;;;23.00;99.90;;;;;;5011734;28;20194;-72
2022/08/22 10:07:09;;;;;;;0.00;0.00;;;23.50;99.90;;;;;;5011842;28;20665;-72
2022/08/22 10:10:02;;;;;;;0.00;0.00;;;23.70;99.90;;;;;;5011836;28;20199;-72
2022/08/22 10:13:02;;;;;;;0.10;0.10;;;23.50;99.90;;;;;;5013321;28;20254;-73
2022/08/22 10:15:37;;;;;;;0.10;0.10;;;23.30;99.90;;;;;;5012072;28;20199;-74
2022/08/22 10:18:48;;;;;;;0.05;0.05;;;23.40;99.20;;;;;;5013633;28;20233;-77
2022/08/22 10:21:32;;;;;;;0.00;0.00;;;23.80;99.90;;;;;;5009690;28;20707;-72
2022/08/22 10:24:36;;;;;;;0.40;0.10;;;24.30;99.00;;;;;;5013103;28;20619;-73
2022/08/22 10:27:12;;;;;;;0.10;0.10;;;24.50;95.60;;;;;;5013198;28;20606;-72
2022/08/22 10:30:08;;;;;;;0.00;0.00;;;24.20;95.50;;;;;;5011672;28;20699;-73
2022/08/22 10:32:46;;;;;;;0.20;0.20;;;23.80;95.90;;;;;;5012791;28;20817;-72
2022/08/22 10:35:20;;;;;;;0.00;0.00;;;24.00;95.60;;;;;;5012792;28;20302;-72
2022/08/22 10:38:35;;;;;;;1.55;0.63;;;24.20;97.70;;;;;;5011628;28;20206;-71
2022/08/22 10:41:13;;;;;;;0.00;0.00;;;24.90;97.10;;;;;;5007208;28;20207;-71
2022/08/22 10:43:59;;;;;;;0.00;0.00;;;25.30;96.40;;;;;;5012705;28;20697;-74
2022/08/22 10:46:39;;;;;;;0.10;0.10;;;24.90;95.40;;;;;;5014899;28;20714;-73
2022/08/22 10:49:45;;;;;;;0.10;0.10;;;25.00;96.20;;;;;;5015143;28;20229;-73
2022/08/22 10:52:31;;;;;;;0.13;0.13;;;25.10;94.80;;;;;;5015288;28;20210;-74
2022/08/22 10:55:06;;;;;;;0.00;0.00;;;25.10;95.00;;;;;;5016537;28;20191;-73
2022/08/22 10:57:42;;;;;;;0.00;0.00;;;25.20;95.20;;;;;;5002905;28;20733;-73
2022/08/22 11:00:29;;;;;;;0.00;0.00;;;25.60;95.80;;;;;;4995507;28;20203;-73
2022/08/22 11:03:14;;;;;;;0.00;0.00;;;26.30;95.00;;;;;;4995205;28;20195;-73
2022/08/22 11:05:48;;;;;;;0.38;0.20;;;26.20;93.40;;;;;;4996584;28;20203;-73
2022/08/22 11:08:28;;;;;;;0.00;0.00;;;26.10;93.60;;;;;;4995347;28;20228;-73
2022/08/22 11:11:11;;;;;;;1.45;0.08;;;26.00;91.50;;;;;;4996220;28;20210;-74
2022/08/22 11:14:05;;;;;;;0.10;0.10;;;26.20;92.30;;;;;;4995047;28;20689;-73
2022/08/22 11:17:05;;;;;;;0.00;0.00;;;26.20;90.60;;;;;;4995222;28;20199;-73
2022/08/22 11:19:48;;;;;;;0.00;0.00;;;26.00;89.20;;;;;;4994511;28;20240;-74
2022/08/22 11:22:23;;;;;;;0.00;0.00;;;25.70;90.70;;;;;;4996129;28;20199;-73
2022/08/22 11:25:22;;;;;;;0.10;0.10;;;25.30;92.70;;;;;;4995106;28;20190;-73
2022/08/22 11:28:22;;;;;;;1.00;0.65;;;25.30;93.30;;;;;;4995080;28;20201;-73
2022/08/22 11:31:04;;;;;;;0.00;0.00;;;26.10;93.00;;;;;;5004914;28;20230;-73
2022/08/22 11:34:02;;;;;;;0.00;0.00;;;26.90;93.70;;;;;;5015436;28;20716;-73
2022/08/22 11:36:40;;;;;;;1.55;0.80;;;27.10;90.40;;;;;;4971751;28;20206;-74
2022/08/22 11:39:36;;;;;;;0.10;0.10;;;26.50;85.70;;;;;;5015320;28;20225;-74
2022/08/22 11:42:25;;;;;;;0.15;0.10;;;26.00;87.10;;;;;;5013481;28;20211;-73
2022/08/22 11:44:55;;;;;;;0.98;0.17;;;25.80;87.80;;;;;;5015046;28;20190;-74
2022/08/22 11:47:26;;;;;;;0.00;0.00;;;25.40;89.90;;;;;;5014890;28;20203;-73
2022/08/22 11:50:17;;;;;;;0.10;0.10;;;25.10;91.10;;;;;;5015047;28;20562;-74
2022/08/22 11:53:30;;;;;;;0.10;0.10;;;25.30;91.90;;;;;;5018116;28;20194;-73
2022/08/22 11:56:24;;;;;;;0.10;0.10;;;25.40;91.80;;;;;;4954672;29;20614;-72
2022/08/22 11:59:01;;;;;;;0.13;0.13;;;25.60;90.00;;;;;;5031706;28;20295;-74
2022/08/22 12:02:04;;;;;;;0.13;0.13;;;25.60;88.40;;;;;;5034561;28;20672;-73
2022/08/22 12:04:37;;;;;;;0.20;0.20;;;25.70;88.60;;;;;;5013759;28;20206;-73
2022/08/22 12:07:17;;;;;;;0.20;0.20;;;25.30;90.50;;;;;;5034850;28;20269;-75
2022/08/22 12:09:50;;;;;;;0.22;0.22;;;25.20;90.80;;;;;;5033191;28;20264;-75
2022/08/22 12:12:35;;;;;;;0.10;0.10;;;25.20;88.50;;;;;;5024633;28;20685;-73
2022/08/22 12:15:36;;;;;;;0.10;0.10;;;25.10;91.30;;;;;;5014660;28;20249;-73
2022/08/22 12:18:23;;;;;;;0.10;0.10;;;25.10;89.90;;;;;;5004551;28;20344;-74
2022/08/22 12:20:49;;;;;;;0.10;0.10;;;25.00;89.30;;;;;;5014747;28;20205;-73
2022/08/22 12:23:29;;;;;;;0.22;0.22;;;24.80;91.80;;;;;;5013508;28;20273;-73
2022/08/22 12:26:07;;;;;;;0.13;0.13;;;25.00;92.50;;;;;;5013471;28;20195;-74
2022/08/22 12:28:55;;;;;;;0.20;0.20;;;25.40;88.80;;;;;;4993845;28;20195;-75
2022/08/22 12:31:45;;;;;;;4.78;0.30;;;25.30;88.30;;;;;;4993580;28;20218;-74
2022/08/22 12:34:26;;;;;;;0.13;0.13;;;25.20;90.90;;;;;;4995009;28;20565;-73
2022/08/22 12:36:57;;;;;;;0.20;0.20;;;24.90;87.80;;;;;;4994906;28;20278;-75
2022/08/22 12:40:10;;;;;;;0.17;0.17;;;25.20;91.50;;;;;;4994514;28;20192;-74
2022/08/22 12:43:06;;;;;;;0.10;0.10;;;24.80;90.70;;;;;;4953669;29;20594;-74
2022/08/22 12:45:56;;;;;;;0.17;0.17;;;24.90;92.70;;;;;;5012643;28;20673;-75
2022/08/22 12:48:39;;;;;;;0.38;0.38;;;24.80;91.30;;;;;;5013956;28;20617;-74
2022/08/22 12:51:29;;;;;;;0.10;0.10;;;24.80;88.90;;;;;;5009692;28;20651;-74
2022/08/22 12:54:25;;;;;;;0.10;0.10;;;24.70;91.30;;;;;;4994438;28;20194;-73
2022/08/22 12:57:18;;;;;;;0.10;0.10;;;24.20;91.90;;;;;;4993279;28;20195;-75
2022/08/22 12:59:51;;;;;;;0.13;0.10;;;24.00;92.40;;;;;;4994098;28;20564;-75
2022/08/22 13:02:33;;;;;;;0.10;0.10;;;23.90;92.80;;;;;;4994097;28;20251;-75
2022/08/22 13:05:10;;;;;;;0.20;0.20;;;24.00;92.50;;;;;;4994180;28;20676;-76
2022/08/22 13:07:37;;;;;;;0.20;0.20;;;23.70;91.50;;;;;;4992641;28;20290;-76
2022/08/22 13:10:30;;;;;;;0.10;0.10;;;23.60;92.40;;;;;;4992690;28;20258;-74
2022/08/22 13:12:58;;;;;;;0.20;0.20;;;23.40;93.30;;;;;;4994057;28;20195;-74
2022/08/22 13:15:31;;;;;;;0.47;0.43;;;23.30;93.10;;;;;;4992550;28;20685;-75
2022/08/22 13:17:59;;;;;;;0.30;0.30;;;23.40;92.70;;;;;;4992774;28;20277;-75
2022/08/22 13:20:35;;;;;;;0.20;0.20;;;23.30;92.50;;;;;;4993635;28;20675;-75
2022/08/22 13:23:15;;;;;;;0.45;0.32;;;23.20;91.60;;;;;;4998991;28;20202;-75
2022/08/22 13:26:02;;;;;;;0.25;0.25;;;23.40;93.70;;;;;;5013266;28;20698;-75
2022/08/22 13:28:31;;;;;;;0.20;0.20;;;23.70;91.50;;;;;;5013272;28;20223;-75
2022/08/22 13:30:59;;;;;;;0.28;0.28;;;23.40;92.70;;;;;;5013231;28;20207;-75
2022/08/22 13:33:31;;;;;;;0.98;0.68;;;23.20;92.90;;;;;;5013093;28;20193;-75
2022/08/22 13:36:01;;;;;;;0.20;0.20;;;23.30;93.10;;;;;;5012030;28;20198;-75
2022/08/22 13:38:44;;;;;;;0.22;0.22;;;23.30;91.70;;;;;;5011712;28;20203;-75
2022/08/22 13:41:13;;;;;;;0.20;0.20;;;23.40;93.60;;;;;;5012148;28;20199;-75
2022/08/22 13:44:08;;;;;;;1.75;0.45;;;23.60;93.60;;;;;;5011715;28;20293;-75
2022/08/22 13:46:36;;;;;;;1.42;0.25;;;23.60;92.80;;;;;;5012123;28;20661;-74
2022/08/22 13:49:06;;;;;;;0.20;0.20;;;23.40;93.40;;;;;;5013163;28;20187;-73
2022/08/22 13:51:39;;;;;;;0.20;0.20;;;23.40;94.00;;;;;;5012945;28;20206;-74
2022/08/22 13:54:14;;;;;;;0.20;0.20;;;23.10;92.80;;;;;;5012226;28;20198;-73
2022/08/22 13:56:50;;;;;;;0.10;0.10;;;23.10;93.60;;;;;;5012970;28;20221;-73
2022/08/22 13:59:42;;;;;;;0.10;0.10;;;23.10;94.60;;;;;;5011534;28;20257;-74
2022/08/22 14:02:17;;;;;;;0.32;0.30;;;23.20;94.60;;;;;;5002212;28;20293;-75
2022/08/22 14:04:45;;;;;;;0.20;0.20;;;23.20;92.50;;;;;;5011538;28;20260;-74
2022/08/22 14:07:36;;;;;;;0.20;0.20;;;23.10;93.80;;;;;;5012967;28;20653;-74
2022/08/22 14:10:08;;;;;;;0.20;0.20;;;23.00;92.30;;;;;;5012958;28;20202;-75
2022/08/22 14:13:05;;;;;;;0.20;0.20;;;23.10;93.20;;;;;;5011513;28;20564;-73
2022/08/22 14:15:34;;;;;;;0.20;0.20;;;23.10;95.30;;;;;;5004663;28;20206;-74